createdAt,value
2023-04-20T00:01:57.585Z,3.90
2023-04-20T00:04:25.226Z,5.47
2023-04-20T00:06:53.012Z,5.50
2023-04-20T00:09:20.567Z,5.97
2023-04-20T00:11:48.177Z,3.70
2023-04-20T00:14:15.959Z,4.70
2023-04-20T00:16:43.525Z,6.43
2023-04-20T00:19:12.829Z,5.90
2023-04-20T00:21:40.354Z,3.17
2023-04-20T00:24:08.212Z,5.90
2023-04-20T00:26:36.003Z,6.27
2023-04-20T00:29:03.765Z,11.30
2023-04-20T00:31:32.717Z,3.47
2023-04-20T00:34:00.215Z,3.47
2023-04-20T00:36:29.842Z,5.13
2023-04-20T00:38:59.674Z,6.93
2023-04-20T00:41:29.620Z,4.80
2023-04-20T00:43:57.090Z,4.57
2023-04-20T00:46:24.730Z,3.93
2023-04-20T00:48:53.889Z,3.23
2023-04-20T00:51:22.720Z,3.90
2023-04-20T00:53:51.588Z,3.93
2023-04-20T00:56:20.130Z,5.97
2023-04-20T00:58:47.851Z,3.90
2023-04-20T01:01:17.674Z,4.40
2023-04-20T01:03:47.507Z,5.00
2023-04-20T01:06:16.108Z,4.33
2023-04-20T01:08:48.431Z,4.20
2023-04-20T01:11:18.064Z,4.50
2023-04-20T01:13:45.877Z,3.57
2023-04-20T01:16:13.486Z,4.57
2023-04-20T01:18:46.304Z,3.87
2023-04-20T01:21:14.608Z,3.67
2023-04-20T01:23:43.654Z,8.30
2023-04-20T01:26:14.030Z,3.03
2023-04-20T01:28:42.883Z,8.63
2023-04-20T01:31:11.246Z,3.23
2023-04-20T01:33:39.162Z,3.47
2023-04-20T01:36:07.965Z,2.50
2023-04-20T01:38:36.269Z,4.23
2023-04-20T01:41:07.225Z,4.17
2023-04-20T01:43:36.000Z,7.73
2023-04-20T01:46:04.027Z,3.30
2023-04-20T01:48:31.968Z,2.47
2023-04-20T01:50:59.588Z,7.63
2023-04-20T01:53:27.857Z,5.73
2023-04-20T01:55:55.717Z,5.13
2023-04-20T01:58:25.188Z,4.60
2023-04-20T02:00:52.785Z,4.80
2023-04-20T02:03:20.556Z,3.50
2023-04-20T02:05:56.935Z,7.00
2023-04-20T02:08:28.285Z,9.03
2023-04-20T02:10:55.772Z,5.43
2023-04-20T02:13:24.631Z,4.20
2023-04-20T02:15:52.259Z,4.80
2023-04-20T02:18:19.722Z,5.37
2023-04-20T02:20:47.703Z,5.00
2023-04-20T02:23:15.771Z,5.40
2023-04-20T02:25:43.271Z,5.70
2023-04-20T02:28:12.668Z,7.47
2023-04-20T02:30:41.664Z,8.67
2023-04-20T02:33:12.686Z,7.43
2023-04-20T02:35:40.197Z,4.83
2023-04-20T02:38:07.645Z,8.43
2023-04-20T02:40:35.328Z,4.00
2023-04-20T02:43:03.503Z,8.63
2023-04-20T02:45:33.006Z,5.93
2023-04-20T02:48:02.042Z,5.80
2023-04-20T02:50:32.111Z,6.43
2023-04-20T02:53:08.786Z,4.87
2023-04-20T02:55:37.772Z,7.63
2023-04-20T02:58:15.222Z,3.00
2023-04-20T03:01:03.745Z,3.80
2023-04-20T03:03:33.653Z,5.00
2023-04-20T03:06:01.330Z,3.77
2023-04-20T03:08:28.876Z,7.07
2023-04-20T03:11:00.399Z,8.30
2023-04-20T03:13:27.906Z,5.17
2023-04-20T03:16:01.800Z,4.40
2023-04-20T03:18:37.839Z,4.60
2023-04-20T03:21:05.888Z,5.27
2023-04-20T03:23:33.376Z,3.27
2023-04-20T03:26:02.759Z,6.50
2023-04-20T03:28:47.043Z,4.70
2023-04-20T03:31:19.873Z,8.30
2023-04-20T03:33:48.870Z,10.00
2023-04-20T03:36:16.334Z,7.73
2023-04-20T03:38:44.189Z,6.10
2023-04-20T03:41:12.405Z,4.57
2023-04-20T03:43:41.287Z,3.30
2023-04-20T03:46:10.230Z,5.23
2023-04-20T03:48:37.841Z,6.53
2023-04-20T03:51:07.075Z,6.83
2023-04-20T03:53:34.587Z,6.10
2023-04-20T03:56:02.349Z,3.50
2023-04-20T03:58:30.887Z,5.33
2023-04-20T04:01:08.009Z,6.90
2023-04-20T04:03:38.095Z,4.13
2023-04-20T04:06:08.409Z,4.60
2023-04-20T04:08:36.377Z,5.00
2023-04-20T04:11:04.867Z,5.60
2023-04-20T04:13:34.627Z,7.10
2023-04-20T04:16:04.138Z,4.17
2023-04-20T04:18:33.060Z,4.93
2023-04-20T04:21:10.225Z,6.47
2023-04-20T04:23:42.232Z,5.23
2023-04-20T04:26:21.410Z,7.70
2023-04-20T04:28:49.279Z,6.70
2023-04-20T04:31:19.437Z,5.00
2023-04-20T04:33:47.746Z,3.63
2023-04-20T04:36:26.896Z,5.10
2023-04-20T04:38:56.286Z,7.87
2023-04-20T04:41:24.242Z,7.27
2023-04-20T04:43:53.302Z,4.07
2023-04-20T04:46:27.780Z,6.23
2023-04-20T04:49:00.754Z,5.10
2023-04-20T04:51:29.666Z,7.63
2023-04-20T04:53:57.161Z,6.20
2023-04-20T04:56:24.811Z,6.17
2023-04-20T04:58:52.411Z,4.73
2023-04-20T05:01:20.086Z,4.33
2023-04-20T05:03:47.828Z,6.43
2023-04-20T05:06:15.569Z,4.03
2023-04-20T05:08:45.548Z,3.70
2023-04-20T05:11:13.041Z,3.13
2023-04-20T05:13:41.488Z,5.00
2023-04-20T05:16:09.075Z,7.20
2023-04-20T05:18:36.698Z,3.50
2023-04-20T05:21:04.283Z,5.80
2023-04-20T05:23:31.765Z,4.53
2023-04-20T05:26:00.629Z,9.87
2023-04-20T05:28:28.118Z,5.43
2023-04-20T05:30:55.663Z,6.20
2023-04-20T05:33:25.075Z,3.10
2023-04-20T05:35:57.473Z,3.93
2023-04-20T05:38:25.392Z,5.00
2023-04-20T05:40:53.190Z,3.93
2023-04-20T05:43:21.997Z,5.47
2023-04-20T05:45:49.765Z,4.77
2023-04-20T05:48:17.507Z,4.10
2023-04-20T05:50:45.070Z,4.10
2023-04-20T05:53:12.548Z,6.40
2023-04-20T05:55:40.135Z,5.17
2023-04-20T05:58:07.649Z,5.43
2023-04-20T06:00:36.733Z,7.20
2023-04-20T06:03:04.823Z,7.87
2023-04-20T06:05:32.619Z,5.00
2023-04-20T06:08:00.406Z,7.27
2023-04-20T06:10:32.151Z,7.53
2023-04-20T06:12:59.682Z,5.60
2023-04-20T06:15:27.270Z,6.20
2023-04-20T06:17:56.570Z,6.43
2023-04-20T06:20:24.616Z,7.10
2023-04-20T06:22:52.159Z,4.97
2023-04-20T06:25:19.934Z,6.23
2023-04-20T06:27:47.591Z,4.37
2023-04-20T06:30:16.169Z,8.60
2023-04-20T06:32:43.722Z,6.53
2023-04-20T06:35:12.677Z,6.87
2023-04-20T06:37:40.600Z,7.97
2023-04-20T06:40:09.262Z,5.83
2023-04-20T06:42:37.226Z,7.00
2023-04-20T06:45:05.871Z,13.87
2023-04-20T06:47:33.837Z,9.40
2023-04-20T06:50:02.501Z,6.70
2023-04-20T06:52:31.868Z,9.70
2023-04-20T06:55:00.252Z,5.20
2023-04-20T06:57:27.750Z,7.80
2023-04-20T06:59:55.495Z,9.90
2023-04-20T07:02:23.241Z,5.70
2023-04-20T07:04:50.901Z,8.80
2023-04-20T07:07:18.441Z,6.40
2023-04-20T07:09:47.215Z,5.33
2023-04-20T07:12:15.754Z,7.23
2023-04-20T07:14:43.266Z,7.00
2023-04-20T07:17:10.738Z,7.50
2023-04-20T07:19:38.324Z,6.83
2023-04-20T07:22:05.981Z,7.00
2023-04-20T07:24:33.481Z,8.57
2023-04-20T07:27:02.634Z,6.23
2023-04-20T07:29:30.727Z,7.17
2023-04-20T07:31:59.367Z,5.77
2023-04-20T07:34:27.110Z,8.83
2023-04-20T07:36:54.563Z,9.27
2023-04-20T07:39:22.102Z,7.20
2023-04-20T07:41:49.677Z,8.37
2023-04-20T07:44:18.470Z,8.77
2023-04-20T07:46:45.957Z,7.70
2023-04-20T07:49:13.388Z,10.03
2023-04-20T07:51:40.842Z,10.70
2023-04-20T07:54:08.417Z,8.70
2023-04-20T07:56:36.043Z,10.70
2023-04-20T07:59:03.904Z,8.60
2023-04-20T08:01:32.839Z,8.27
2023-04-20T08:04:00.623Z,10.90
2023-04-20T08:06:28.306Z,6.10
2023-04-20T08:08:55.962Z,8.80
2023-04-20T08:11:24.981Z,7.80
2023-04-20T08:13:52.546Z,12.77
2023-04-20T08:16:20.064Z,8.50
2023-04-20T08:18:48.862Z,8.30
2023-04-20T08:21:16.316Z,10.00
2023-04-20T08:23:43.967Z,5.70
2023-04-20T08:26:16.237Z,9.80
2023-04-20T08:28:44.480Z,9.13
2023-04-20T08:31:13.753Z,8.53
2023-04-20T08:33:41.301Z,9.90
2023-04-20T08:36:10.648Z,7.77
2023-04-20T08:38:38.234Z,5.00
2023-04-20T08:41:06.020Z,5.90
2023-04-20T08:43:33.579Z,8.70
2023-04-20T08:46:02.648Z,9.53
2023-04-20T08:48:36.310Z,8.40
2023-04-20T08:51:04.910Z,8.87
2023-04-20T08:53:34.666Z,9.70
2023-04-20T08:56:02.422Z,9.00
2023-04-20T08:58:32.058Z,6.53
2023-04-20T09:01:00.629Z,7.30
2023-04-20T09:03:35.188Z,7.10
2023-04-20T09:06:02.882Z,11.73
2023-04-20T09:08:40.247Z,6.17
2023-04-20T09:11:07.842Z,8.30
2023-04-20T09:13:35.636Z,8.27
2023-04-20T09:16:13.494Z,7.13
2023-04-20T09:18:41.047Z,7.97
2023-04-20T09:21:09.486Z,8.00
2023-04-20T09:23:38.386Z,5.23
2023-04-20T09:26:06.280Z,9.70
2023-04-20T09:28:39.619Z,7.13
2023-04-20T09:31:07.399Z,6.23
2023-04-20T09:33:36.652Z,6.10
2023-04-20T09:36:05.717Z,7.47
2023-04-20T09:38:33.624Z,4.90
2023-04-20T09:41:02.724Z,6.00
2023-04-20T09:43:31.244Z,6.80
2023-04-20T09:45:59.602Z,4.87
2023-04-20T09:48:27.436Z,5.90
2023-04-20T09:50:55.093Z,6.70
2023-04-20T09:53:22.679Z,7.00
2023-04-20T09:55:51.662Z,9.03
2023-04-20T09:58:21.836Z,7.07
2023-04-20T10:00:49.810Z,8.43
2023-04-20T10:03:18.607Z,6.50
2023-04-20T10:05:46.511Z,7.00
2023-04-20T10:08:14.150Z,4.50
2023-04-20T10:10:46.711Z,7.73
2023-04-20T10:13:19.201Z,5.97
2023-04-20T10:15:48.460Z,6.53
2023-04-20T10:18:18.479Z,4.87
2023-04-20T10:20:46.450Z,6.40
2023-04-20T10:23:16.125Z,5.53
2023-04-20T10:25:45.339Z,6.03
2023-04-20T10:28:13.002Z,6.67
2023-04-20T10:30:53.826Z,6.63
2023-04-20T10:33:22.722Z,6.40
2023-04-20T10:35:51.936Z,6.27
2023-04-20T10:38:31.757Z,8.40
2023-04-20T10:41:06.960Z,6.17
2023-04-20T10:43:35.496Z,7.77
2023-04-20T10:46:14.445Z,6.03
2023-04-20T10:49:01.486Z,5.50
2023-04-20T10:51:29.185Z,6.20
2023-04-20T10:54:05.152Z,5.67
2023-04-20T10:56:43.446Z,9.13
2023-04-20T10:59:12.610Z,10.57
2023-04-20T11:01:42.054Z,5.53
2023-04-20T11:04:10.477Z,7.10
2023-04-20T11:06:39.409Z,7.67
2023-04-20T11:09:18.350Z,7.40
2023-04-20T11:11:46.109Z,8.77
2023-04-20T11:14:13.928Z,5.77
2023-04-20T11:16:53.361Z,5.57
2023-04-20T11:19:25.806Z,5.57
2023-04-20T11:21:53.919Z,16.93
2023-04-20T11:24:22.489Z,7.13
2023-04-20T11:26:50.928Z,6.30
2023-04-20T11:29:33.090Z,7.43
2023-04-20T11:32:04.836Z,7.70
2023-04-20T11:34:32.720Z,9.70
2023-04-20T11:37:05.064Z,6.90
2023-04-20T11:39:33.451Z,7.30
2023-04-20T11:42:01.814Z,6.70
2023-04-20T11:44:29.460Z,6.77
2023-04-20T11:46:58.038Z,5.17
2023-04-20T11:49:28.617Z,5.40
2023-04-20T11:51:58.155Z,6.47
2023-04-20T11:54:27.235Z,10.57
2023-04-20T11:56:54.700Z,5.33
2023-04-20T11:59:22.356Z,5.37
2023-04-20T12:01:49.856Z,5.20
2023-04-20T12:04:17.775Z,7.80
2023-04-20T12:06:46.880Z,7.33
2023-04-20T12:09:15.024Z,4.40
2023-04-20T12:11:42.599Z,4.73
2023-04-20T12:14:10.040Z,4.83
2023-04-20T12:16:37.695Z,9.73
2023-04-20T12:19:05.166Z,8.97
2023-04-20T12:21:33.025Z,5.47
2023-04-20T12:24:01.857Z,8.17
2023-04-20T12:26:37.837Z,5.40
2023-04-20T12:29:07.084Z,6.90
2023-04-20T12:31:35.516Z,5.77
2023-04-20T12:34:03.245Z,8.03
2023-04-20T12:36:32.493Z,6.27
2023-04-20T12:39:00.785Z,6.53
2023-04-20T12:41:29.653Z,4.93
2023-04-20T12:43:57.245Z,4.70
2023-04-20T12:46:25.277Z,6.20
2023-04-20T12:48:55.277Z,6.27
2023-04-20T12:51:22.949Z,8.40
2023-04-20T12:53:50.417Z,4.53
2023-04-20T12:56:17.870Z,5.37
2023-04-20T12:58:47.118Z,7.50
2023-04-20T13:01:14.691Z,5.20
2023-04-20T13:03:42.611Z,6.93
2023-04-20T13:06:14.311Z,5.03
2023-04-20T13:08:42.029Z,6.33
2023-04-20T13:11:15.286Z,5.77
2023-04-20T13:13:42.821Z,6.30
2023-04-20T13:16:11.772Z,5.50
2023-04-20T13:18:39.963Z,6.90
2023-04-20T13:21:08.266Z,7.07
2023-04-20T13:23:38.131Z,6.20
2023-04-20T13:26:07.124Z,6.70
2023-04-20T13:28:34.718Z,8.43
2023-04-20T13:31:02.221Z,6.47
2023-04-20T13:33:31.410Z,5.87
2023-04-20T13:35:58.945Z,8.80
2023-04-20T13:38:26.476Z,5.87
2023-04-20T13:40:53.889Z,6.80
2023-04-20T13:43:21.838Z,6.40
2023-04-20T13:45:49.424Z,8.27
2023-04-20T13:48:16.945Z,8.70
2023-04-20T13:50:47.345Z,9.40
2023-04-20T13:53:14.815Z,9.07
2023-04-20T13:55:42.313Z,9.03
2023-04-20T13:58:09.762Z,9.17
2023-04-20T14:00:37.303Z,7.73
2023-04-20T14:03:06.236Z,8.20
2023-04-20T14:05:34.004Z,9.50
2023-04-20T14:08:03.694Z,9.53
2023-04-20T14:10:31.350Z,9.00
2023-04-20T14:12:58.888Z,8.33
2023-04-20T14:15:29.242Z,7.33
2023-04-20T14:17:56.960Z,10.53
2023-04-20T14:20:24.698Z,8.97
2023-04-20T14:22:52.519Z,8.67
2023-04-20T14:25:21.353Z,8.57
2023-04-20T14:27:50.203Z,8.27
2023-04-20T14:30:17.939Z,6.90
2023-04-20T14:32:54.919Z,7.80
2023-04-20T14:35:22.760Z,10.03
2023-04-20T14:37:50.360Z,6.77
2023-04-20T14:40:18.272Z,9.77
2023-04-20T14:42:48.540Z,9.07
2023-04-20T14:45:16.184Z,11.50
2023-04-20T14:47:44.042Z,7.10
2023-04-20T14:50:12.642Z,7.90
2023-04-20T14:52:40.146Z,7.53
2023-04-20T14:55:08.381Z,10.90
2023-04-20T14:57:35.998Z,7.73
2023-04-20T15:00:06.803Z,8.60
2023-04-20T15:02:34.640Z,6.67
2023-04-20T15:05:04.120Z,7.40
2023-04-20T15:07:33.836Z,7.23
2023-04-20T15:10:01.365Z,6.43
2023-04-20T15:12:29.107Z,8.87
2023-04-20T15:14:56.556Z,9.43
2023-04-20T15:17:25.582Z,8.47
2023-04-20T15:19:53.140Z,7.03
2023-04-20T15:22:20.704Z,5.90
2023-04-20T15:24:48.281Z,5.43
2023-04-20T15:27:17.066Z,7.47
2023-04-20T15:29:44.698Z,9.23
2023-04-20T15:32:12.297Z,11.60
2023-04-20T15:34:41.240Z,10.70
2023-04-20T15:37:08.861Z,10.60
2023-04-20T15:39:36.483Z,11.27
2023-04-20T15:42:04.044Z,9.03
2023-04-20T15:44:31.692Z,9.00
2023-04-20T15:46:59.151Z,7.10
2023-04-20T15:49:27.128Z,9.63
2023-04-20T15:51:56.091Z,8.90
2023-04-20T15:54:24.100Z,8.37
2023-04-20T15:56:51.769Z,10.33
2023-04-20T15:59:19.507Z,9.90
2023-04-20T16:01:47.004Z,9.10
2023-04-20T16:04:14.691Z,8.90
2023-04-20T16:06:42.429Z,8.97
2023-04-20T16:09:11.269Z,9.13
2023-04-20T16:11:39.802Z,11.00
2023-04-20T16:14:08.124Z,10.50
2023-04-20T16:16:35.967Z,10.10
2023-04-20T16:19:03.697Z,10.73
2023-04-20T16:21:31.457Z,12.17
2023-04-20T16:23:58.944Z,12.13
2023-04-20T16:26:27.920Z,8.90
2023-04-20T16:28:55.408Z,9.93
2023-04-20T16:31:22.957Z,8.63
2023-04-20T16:33:50.468Z,10.50
2023-04-20T16:36:17.970Z,11.30
2023-04-20T16:38:45.611Z,8.93
2023-04-20T16:41:13.047Z,9.63
2023-04-20T16:43:41.858Z,7.23
2023-04-20T16:46:12.954Z,10.43
2023-04-20T16:48:40.655Z,9.37
2023-04-20T16:51:08.378Z,10.17
2023-04-20T16:53:36.013Z,9.07
2023-04-20T16:56:03.552Z,13.87
2023-04-20T16:58:31.443Z,9.87
2023-04-20T17:01:00.512Z,7.60
2023-04-20T17:03:28.519Z,10.67
2023-04-20T17:05:56.709Z,9.67
2023-04-20T17:08:27.204Z,16.70
2023-04-20T17:10:54.647Z,11.00
2023-04-20T17:13:22.234Z,8.80
2023-04-20T17:15:49.688Z,12.90
2023-04-20T17:18:19.648Z,9.70
2023-04-20T17:20:47.837Z,8.17
2023-04-20T17:23:17.465Z,8.87
2023-04-20T17:25:47.187Z,11.00
2023-04-20T17:28:15.034Z,8.87
2023-04-20T17:30:42.673Z,8.30
2023-04-20T17:33:12.152Z,10.60
2023-04-20T17:35:41.011Z,8.93
2023-04-20T17:38:08.541Z,10.10
2023-04-20T17:40:36.127Z,9.73
2023-04-20T17:43:03.785Z,8.80
2023-04-20T17:45:31.541Z,7.00
2023-04-20T17:47:59.073Z,8.97
2023-04-20T17:50:26.921Z,8.67
2023-04-20T17:52:55.742Z,11.13
2023-04-20T17:55:23.425Z,9.00
2023-04-20T17:57:51.000Z,6.93
2023-04-20T18:00:20.409Z,6.70
2023-04-20T18:02:47.952Z,11.43
2023-04-20T18:05:15.587Z,8.30
2023-04-20T18:07:43.076Z,7.90
2023-04-20T18:10:13.492Z,8.10
2023-04-20T18:12:41.425Z,8.20
2023-04-20T18:15:10.324Z,9.17
2023-04-20T18:17:38.020Z,7.53
2023-04-20T18:20:08.426Z,10.87
2023-04-20T18:22:37.125Z,10.87
2023-04-20T18:25:05.252Z,8.67
2023-04-20T18:27:34.178Z,6.83
2023-04-20T18:30:01.697Z,9.23
2023-04-20T18:32:30.971Z,7.83
2023-04-20T18:34:59.125Z,6.63
2023-04-20T18:37:26.645Z,9.30
2023-04-20T18:39:54.161Z,11.33
2023-04-20T18:42:21.661Z,8.90
2023-04-20T18:44:52.769Z,7.03
2023-04-20T18:47:22.148Z,11.40
2023-04-20T18:49:49.616Z,11.10
2023-04-20T18:52:17.303Z,7.40
2023-04-20T18:54:46.332Z,11.70
2023-04-20T18:57:13.902Z,7.57
2023-04-20T18:59:41.496Z,12.27
2023-04-20T19:02:13.475Z,12.03
2023-04-20T19:04:41.068Z,9.20
2023-04-20T19:07:08.528Z,8.27
2023-04-20T19:09:36.098Z,10.30
2023-04-20T19:12:03.572Z,7.17
2023-04-20T19:14:31.125Z,8.80
2023-04-20T19:16:58.842Z,9.77
2023-04-20T19:19:27.719Z,9.50
2023-04-20T19:21:55.205Z,7.00
2023-04-20T19:24:22.661Z,14.03
2023-04-20T19:26:50.232Z,9.43
2023-04-20T19:29:17.805Z,9.80
2023-04-20T19:31:45.391Z,7.90
2023-04-20T19:34:13.480Z,6.53
2023-04-20T19:36:42.838Z,10.97
2023-04-20T19:39:11.101Z,10.07
2023-04-20T19:41:38.883Z,12.27
2023-04-20T19:44:06.508Z,10.67
2023-04-20T19:46:34.667Z,9.67
2023-04-20T19:49:02.429Z,11.70
2023-04-20T19:51:31.825Z,7.20
2023-04-20T19:54:03.446Z,9.43
2023-04-20T19:56:31.466Z,10.80
2023-04-20T19:58:59.160Z,8.03
2023-04-20T20:01:26.748Z,8.70
2023-04-20T20:03:54.445Z,20.03
2023-04-20T20:06:23.526Z,18.00
2023-04-20T20:08:51.455Z,11.33
2023-04-20T20:11:21.934Z,9.63
2023-04-20T20:13:49.415Z,14.93
2023-04-20T20:16:17.145Z,12.77
2023-04-20T20:18:45.520Z,13.30
2023-04-20T20:21:12.946Z,16.13
2023-04-20T20:23:40.518Z,19.30
2023-04-20T20:26:07.959Z,17.07
2023-04-20T20:28:36.900Z,13.33
2023-04-20T20:31:04.524Z,13.43
2023-04-20T20:33:32.802Z,14.20
2023-04-20T20:36:01.481Z,10.53
2023-04-20T20:38:30.878Z,13.77
2023-04-20T20:40:58.605Z,16.90
2023-04-20T20:43:26.401Z,12.67
2023-04-20T20:45:55.317Z,17.27
2023-04-20T20:48:22.746Z,21.07
2023-04-20T20:50:50.209Z,11.97
2023-04-20T20:53:20.226Z,14.80
2023-04-20T20:55:47.792Z,18.23
2023-04-20T20:58:15.301Z,14.20
2023-04-20T21:00:42.845Z,13.63
2023-04-20T21:03:11.844Z,15.10
2023-04-20T21:05:40.260Z,16.73
2023-04-20T21:08:09.771Z,12.30
2023-04-20T21:10:37.237Z,17.60
2023-04-20T21:13:05.816Z,10.57
2023-04-20T21:15:33.906Z,12.40
2023-04-20T21:18:01.817Z,15.20
2023-04-20T21:20:30.724Z,15.60
2023-04-20T21:22:58.989Z,11.23
2023-04-20T21:25:26.487Z,9.07
2023-04-20T21:27:53.988Z,13.53
2023-04-20T21:30:21.645Z,11.27
2023-04-20T21:32:49.175Z,14.83
2023-04-20T21:35:16.803Z,12.07
2023-04-20T21:37:45.601Z,12.73
2023-04-20T21:40:13.410Z,11.30
2023-04-20T21:42:41.514Z,13.40
2023-04-20T21:45:10.297Z,15.13
2023-04-20T21:47:37.854Z,11.50
2023-04-20T21:50:06.194Z,14.50
2023-04-20T21:52:33.656Z,11.40
2023-04-20T21:55:02.511Z,14.77
2023-04-20T21:57:29.992Z,15.77
2023-04-20T21:59:57.946Z,11.90
2023-04-20T22:02:25.657Z,11.90
2023-04-20T22:04:53.349Z,12.30
2023-04-20T22:07:21.067Z,14.30
2023-04-20T22:09:48.818Z,12.40
2023-04-20T22:12:23.503Z,16.87
2023-04-20T22:14:56.436Z,13.57
2023-04-20T22:17:24.057Z,12.27
2023-04-20T22:19:51.530Z,15.53
2023-04-20T22:22:18.964Z,14.00
2023-04-20T22:24:46.412Z,15.90
2023-04-20T22:27:14.045Z,16.80
2023-04-20T22:29:42.797Z,13.97
2023-04-20T22:32:10.531Z,13.50
2023-04-20T22:34:38.061Z,16.40
2023-04-20T22:37:06.303Z,11.80
2023-04-20T22:39:34.064Z,18.30
2023-04-20T22:42:01.933Z,12.93
2023-04-20T22:44:29.460Z,14.03
2023-04-20T22:46:58.382Z,13.30
2023-04-20T22:49:25.829Z,13.33
2023-04-20T22:51:56.877Z,11.50
2023-04-20T22:54:24.354Z,16.63
2023-04-20T22:56:52.628Z,14.17
2023-04-20T22:59:20.694Z,14.80
2023-04-20T23:01:48.446Z,15.40
2023-04-20T23:04:17.339Z,16.83
2023-04-20T23:06:45.186Z,16.90
2023-04-20T23:09:13.354Z,16.60
2023-04-20T23:11:41.261Z,19.03
2023-04-20T23:14:10.800Z,14.13
2023-04-20T23:16:38.385Z,17.47
2023-04-20T23:19:06.004Z,14.40
2023-04-20T23:21:34.889Z,10.87
2023-04-20T23:24:02.407Z,13.07
2023-04-20T23:26:30.146Z,17.70
2023-04-20T23:28:57.604Z,14.57
2023-04-20T23:31:26.174Z,18.30
2023-04-20T23:33:53.662Z,14.97
2023-04-20T23:36:21.251Z,15.47
2023-04-20T23:38:50.155Z,12.60
2023-04-20T23:41:17.648Z,13.30
2023-04-20T23:43:45.192Z,18.40
2023-04-20T23:46:14.337Z,15.87
2023-04-20T23:48:42.112Z,14.90
2023-04-20T23:51:09.757Z,16.87
2023-04-20T23:53:37.531Z,15.37
2023-04-20T23:56:07.493Z,21.33
2023-04-20T23:58:35.172Z,15.17
